sensor_id;sensor_type;location;lat;lon;timestamp;P1;durP1;ratioP1;P2;durP2;ratioP2
15952;SDS011;8075;47.766;8.846;2023-01-29T00:00:07;12.73;;;11.35;;
15952;SDS011;8075;47.766;8.846;2023-01-29T00:02:36;11.10;;;10.00;;
15952;SDS011;8075;47.766;8.846;2023-01-29T00:05:03;12.02;;;10.93;;
15952;SDS011;8075;47.766;8.846;2023-01-29T00:07:30;12.00;;;10.90;;
15952;SDS011;8075;47.766;8.846;2023-01-29T00:09:56;11.45;;;10.35;;
15952;SDS011;8075;47.766;8.846;2023-01-29T00:12:22;10.77;;;9.88;;
15952;SDS011;8075;47.766;8.846;2023-01-29T00:14:48;11.43;;;10.23;;
15952;SDS011;8075;47.766;8.846;2023-01-29T00:17:14;11.05;;;9.95;;
15952;SDS011;8075;47.766;8.846;2023-01-29T00:19:40;10.90;;;9.80;;
15952;SDS011;8075;47.766;8.846;2023-01-29T00:22:07;10.23;;;9.23;;
15952;SDS011;8075;47.766;8.846;2023-01-29T00:24:33;10.45;;;9.55;;
15952;SDS011;8075;47.766;8.846;2023-01-29T00:26:59;10.75;;;9.75;;
15952;SDS011;8075;47.766;8.846;2023-01-29T00:29:26;10.40;;;9.40;;
15952;SDS011;8075;47.766;8.846;2023-01-29T00:31:52;10.93;;;9.80;;
15952;SDS011;8075;47.766;8.846;2023-01-29T00:34:18;10.68;;;9.68;;
15952;SDS011;8075;47.766;8.846;2023-01-29T00:36:44;10.70;;;9.60;;
15952;SDS011;8075;47.766;8.846;2023-01-29T00:39:10;10.18;;;9.18;;
15952;SDS011;8075;47.766;8.846;2023-01-29T00:41:36;10.67;;;9.70;;
15952;SDS011;8075;47.766;8.846;2023-01-29T00:44:21;9.97;;;8.97;;
15952;SDS011;8075;47.766;8.846;2023-01-29T00:47:06;10.43;;;9.45;;
15952;SDS011;8075;47.766;8.846;2023-01-29T00:49:51;9.80;;;8.90;;
15952;SDS011;8075;47.766;8.846;2023-01-29T00:52:17;9.85;;;8.95;;
15952;SDS011;8075;47.766;8.846;2023-01-29T00:54:53;9.75;;;8.85;;
15952;SDS011;8075;47.766;8.846;2023-01-29T00:57:20;10.00;;;9.10;;
15952;SDS011;8075;47.766;8.846;2023-01-29T00:59:50;9.88;;;8.98;;
15952;SDS011;8075;47.766;8.846;2023-01-29T01:02:16;10.13;;;9.17;;
15952;SDS011;8075;47.766;8.846;2023-01-29T01:05:02;9.87;;;8.97;;
15952;SDS011;8075;47.766;8.846;2023-01-29T01:07:30;9.68;;;8.68;;
15952;SDS011;8075;47.766;8.846;2023-01-29T01:09:56;9.70;;;8.77;;
15952;SDS011;8075;47.766;8.846;2023-01-29T01:12:41;9.80;;;8.90;;
15952;SDS011;8075;47.766;8.846;2023-01-29T01:15:07;10.00;;;9.07;;
15952;SDS011;8075;47.766;8.846;2023-01-29T01:17:34;9.27;;;8.48;;
15952;SDS011;8075;47.766;8.846;2023-01-29T01:20:00;9.95;;;9.05;;
15952;SDS011;8075;47.766;8.846;2023-01-29T01:22:26;9.60;;;8.80;;
15952;SDS011;8075;47.766;8.846;2023-01-29T01:24:52;10.27;;;9.32;;
15952;SDS011;8075;47.766;8.846;2023-01-29T01:27:19;10.60;;;9.60;;
15952;SDS011;8075;47.766;8.846;2023-01-29T01:29:45;10.50;;;9.50;;
15952;SDS011;8075;47.766;8.846;2023-01-29T01:32:12;9.70;;;8.80;;
15952;SDS011;8075;47.766;8.846;2023-01-29T01:34:38;10.55;;;9.55;;
15952;SDS011;8075;47.766;8.846;2023-01-29T01:37:04;11.30;;;10.30;;
15952;SDS011;8075;47.766;8.846;2023-01-29T01:39:30;11.38;;;10.30;;
15952;SDS011;8075;47.766;8.846;2023-01-29T01:41:56;11.27;;;10.27;;
15952;SDS011;8075;47.766;8.846;2023-01-29T01:47:07;10.60;;;9.70;;
15952;SDS011;8075;47.766;8.846;2023-01-29T01:49:33;11.00;;;10.00;;
15952;SDS011;8075;47.766;8.846;2023-01-29T01:52:00;11.43;;;10.32;;
15952;SDS011;8075;47.766;8.846;2023-01-29T01:54:27;10.73;;;9.80;;
15952;SDS011;8075;47.766;8.846;2023-01-29T01:56:56;11.60;;;10.50;;
15952;SDS011;8075;47.766;8.846;2023-01-29T01:59:34;11.18;;;10.18;;
15952;SDS011;8075;47.766;8.846;2023-01-29T02:02:01;10.55;;;9.55;;
15952;SDS011;8075;47.766;8.846;2023-01-29T02:04:46;10.50;;;9.60;;
15952;SDS011;8075;47.766;8.846;2023-01-29T02:07:31;11.03;;;10.03;;
15952;SDS011;8075;47.766;8.846;2023-01-29T02:10:16;9.90;;;9.10;;
15952;SDS011;8075;47.766;8.846;2023-01-29T02:12:43;10.77;;;9.77;;
15952;SDS011;8075;47.766;8.846;2023-01-29T02:15:11;10.38;;;9.48;;
15952;SDS011;8075;47.766;8.846;2023-01-29T02:17:37;10.77;;;9.87;;
15952;SDS011;8075;47.766;8.846;2023-01-29T02:30:43;10.55;;;9.63;;
15952;SDS011;8075;47.766;8.846;2023-01-29T02:33:25;11.07;;;10.13;;
15952;SDS011;8075;47.766;8.846;2023-01-29T02:45:46;10.45;;;9.45;;
15952;SDS011;8075;47.766;8.846;2023-01-29T02:48:18;10.93;;;9.93;;
15952;SDS011;8075;47.766;8.846;2023-01-29T02:50:49;10.13;;;9.30;;
15952;SDS011;8075;47.766;8.846;2023-01-29T03:00:53;9.38;;;8.57;;
15952;SDS011;8075;47.766;8.846;2023-01-29T03:03:23;9.30;;;8.50;;
15952;SDS011;8075;47.766;8.846;2023-01-29T03:08:30;8.38;;;7.68;;
15952;SDS011;8075;47.766;8.846;2023-01-29T03:11:07;8.70;;;8.00;;
15952;SDS011;8075;47.766;8.846;2023-01-29T03:16:06;8.60;;;7.90;;
15952;SDS011;8075;47.766;8.846;2023-01-29T03:18:35;9.30;;;8.50;;
15952;SDS011;8075;47.766;8.846;2023-01-29T03:21:07;8.27;;;7.57;;
15952;SDS011;8075;47.766;8.846;2023-01-29T03:23:54;9.32;;;8.45;;
15952;SDS011;8075;47.766;8.846;2023-01-29T03:26:40;9.00;;;8.30;;
15952;SDS011;8075;47.766;8.846;2023-01-29T03:29:26;9.25;;;8.45;;
15952;SDS011;8075;47.766;8.846;2023-01-29T03:32:12;8.95;;;8.23;;
15952;SDS011;8075;47.766;8.846;2023-01-29T03:34:45;8.80;;;8.05;;
15952;SDS011;8075;47.766;8.846;2023-01-29T03:39:39;8.10;;;7.50;;
15952;SDS011;8075;47.766;8.846;2023-01-29T03:42:20;8.02;;;7.43;;
15952;SDS011;8075;47.766;8.846;2023-01-29T03:44:56;8.75;;;8.05;;
15952;SDS011;8075;47.766;8.846;2023-01-29T03:50:02;9.20;;;8.40;;
15952;SDS011;8075;47.766;8.846;2023-01-29T03:52:33;8.82;;;8.13;;
15952;SDS011;8075;47.766;8.846;2023-01-29T03:55:15;8.93;;;8.18;;
15952;SDS011;8075;47.766;8.846;2023-01-29T03:57:45;9.45;;;8.65;;
15952;SDS011;8075;47.766;8.846;2023-01-29T04:02:55;13.88;;;12.57;;
15952;SDS011;8075;47.766;8.846;2023-01-29T04:05:23;10.70;;;9.80;;
15952;SDS011;8075;47.766;8.846;2023-01-29T04:07:52;9.88;;;9.02;;
15952;SDS011;8075;47.766;8.846;2023-01-29T04:10:20;10.27;;;9.48;;
15952;SDS011;8075;47.766;8.846;2023-01-29T04:12:57;14.40;;;12.90;;
15952;SDS011;8075;47.766;8.846;2023-01-29T04:15:24;11.60;;;10.50;;
15952;SDS011;8075;47.766;8.846;2023-01-29T04:17:52;10.10;;;9.27;;
15952;SDS011;8075;47.766;8.846;2023-01-29T04:20:20;9.20;;;8.40;;
15952;SDS011;8075;47.766;8.846;2023-01-29T04:22:48;9.30;;;8.60;;
15952;SDS011;8075;47.766;8.846;2023-01-29T04:25:15;9.10;;;8.30;;
15952;SDS011;8075;47.766;8.846;2023-01-29T04:32:50;9.98;;;9.07;;
15952;SDS011;8075;47.766;8.846;2023-01-29T04:38:10;10.05;;;9.15;;
15952;SDS011;8075;47.766;8.846;2023-01-29T04:43:07;9.73;;;8.93;;
15952;SDS011;8075;47.766;8.846;2023-01-29T04:45:58;26.65;;;17.48;;
15952;SDS011;8075;47.766;8.846;2023-01-29T04:50:50;11.43;;;10.33;;
15952;SDS011;8075;47.766;8.846;2023-01-29T04:53:30;14.10;;;12.10;;
15952;SDS011;8075;47.766;8.846;2023-01-29T04:56:05;12.27;;;11.00;;
15952;SDS011;8075;47.766;8.846;2023-01-29T04:58:43;9.25;;;8.52;;
15952;SDS011;8075;47.766;8.846;2023-01-29T05:01:10;9.88;;;9.07;;
15952;SDS011;8075;47.766;8.846;2023-01-29T05:03:38;10.10;;;9.20;;
15952;SDS011;8075;47.766;8.846;2023-01-29T05:06:05;13.93;;;12.03;;
15952;SDS011;8075;47.766;8.846;2023-01-29T05:08:32;182.13;;;66.97;;
15952;SDS011;8075;47.766;8.846;2023-01-29T05:10:59;257.65;;;87.65;;
15952;SDS011;8075;47.766;8.846;2023-01-29T05:13:25;56.38;;;25.92;;
15952;SDS011;8075;47.766;8.846;2023-01-29T05:15:55;17.63;;;15.75;;
15952;SDS011;8075;47.766;8.846;2023-01-29T05:18:22;12.07;;;11.07;;
15952;SDS011;8075;47.766;8.846;2023-01-29T05:20:48;10.73;;;9.90;;
15952;SDS011;8075;47.766;8.846;2023-01-29T05:25:41;11.30;;;10.40;;
15952;SDS011;8075;47.766;8.846;2023-01-29T05:28:07;12.52;;;11.52;;
15952;SDS011;8075;47.766;8.846;2023-01-29T05:30:46;11.23;;;10.32;;
15952;SDS011;8075;47.766;8.846;2023-01-29T05:33:14;11.68;;;10.75;;
15952;SDS011;8075;47.766;8.846;2023-01-29T05:35:40;11.57;;;10.57;;
15952;SDS011;8075;47.766;8.846;2023-01-29T05:38:06;10.80;;;9.95;;
15952;SDS011;8075;47.766;8.846;2023-01-29T05:40:33;10.95;;;9.95;;
15952;SDS011;8075;47.766;8.846;2023-01-29T05:42:58;10.95;;;10.05;;
15952;SDS011;8075;47.766;8.846;2023-01-29T05:45:25;10.50;;;9.70;;
15952;SDS011;8075;47.766;8.846;2023-01-29T05:47:54;10.43;;;9.43;;
15952;SDS011;8075;47.766;8.846;2023-01-29T05:50:20;10.40;;;9.60;;
15952;SDS011;8075;47.766;8.846;2023-01-29T05:52:46;11.40;;;10.40;;
15952;SDS011;8075;47.766;8.846;2023-01-29T05:55:12;10.90;;;10.00;;
15952;SDS011;8075;47.766;8.846;2023-01-29T05:57:39;11.97;;;10.93;;
15952;SDS011;8075;47.766;8.846;2023-01-29T06:00:05;11.65;;;10.55;;
15952;SDS011;8075;47.766;8.846;2023-01-29T06:02:31;11.45;;;10.55;;
15952;SDS011;8075;47.766;8.846;2023-01-29T06:04:57;11.68;;;10.65;;
15952;SDS011;8075;47.766;8.846;2023-01-29T06:07:23;11.95;;;10.95;;
15952;SDS011;8075;47.766;8.846;2023-01-29T06:09:49;12.88;;;11.88;;
15952;SDS011;8075;47.766;8.846;2023-01-29T06:12:15;11.57;;;10.57;;
15952;SDS011;8075;47.766;8.846;2023-01-29T06:14:41;12.13;;;11.13;;
15952;SDS011;8075;47.766;8.846;2023-01-29T06:17:09;10.90;;;10.00;;
15952;SDS011;8075;47.766;8.846;2023-01-29T06:19:35;11.02;;;10.15;;
15952;SDS011;8075;47.766;8.846;2023-01-29T06:22:01;11.00;;;10.10;;
15952;SDS011;8075;47.766;8.846;2023-01-29T06:24:28;10.95;;;10.05;;
15952;SDS011;8075;47.766;8.846;2023-01-29T06:26:54;11.25;;;10.25;;
15952;SDS011;8075;47.766;8.846;2023-01-29T06:29:20;11.10;;;10.18;;
15952;SDS011;8075;47.766;8.846;2023-01-29T06:31:46;10.27;;;9.48;;
15952;SDS011;8075;47.766;8.846;2023-01-29T06:34:12;11.07;;;10.07;;
15952;SDS011;8075;47.766;8.846;2023-01-29T06:36:38;11.45;;;10.55;;
15952;SDS011;8075;47.766;8.846;2023-01-29T06:39:05;11.10;;;10.20;;
15952;SDS011;8075;47.766;8.846;2023-01-29T06:41:32;12.00;;;11.00;;
15952;SDS011;8075;47.766;8.846;2023-01-29T06:43:58;11.07;;;10.18;;
15952;SDS011;8075;47.766;8.846;2023-01-29T06:46:24;11.50;;;10.50;;
15952;SDS011;8075;47.766;8.846;2023-01-29T06:48:50;11.05;;;10.15;;
15952;SDS011;8075;47.766;8.846;2023-01-29T06:51:16;11.35;;;10.35;;
15952;SDS011;8075;47.766;8.846;2023-01-29T06:53:42;11.00;;;10.10;;
15952;SDS011;8075;47.766;8.846;2023-01-29T06:56:08;11.05;;;10.15;;
15952;SDS011;8075;47.766;8.846;2023-01-29T06:58:37;11.57;;;10.57;;
15952;SDS011;8075;47.766;8.846;2023-01-29T07:03:29;11.70;;;10.70;;
15952;SDS011;8075;47.766;8.846;2023-01-29T07:05:55;19.42;;;16.77;;
15952;SDS011;8075;47.766;8.846;2023-01-29T07:08:21;18.17;;;16.48;;
15952;SDS011;8075;47.766;8.846;2023-01-29T07:10:47;12.95;;;11.85;;
15952;SDS011;8075;47.766;8.846;2023-01-29T07:13:14;19.67;;;16.23;;
15952;SDS011;8075;47.766;8.846;2023-01-29T07:15:40;12.20;;;11.10;;
15952;SDS011;8075;47.766;8.846;2023-01-29T07:18:06;12.23;;;11.10;;
15952;SDS011;8075;47.766;8.846;2023-01-29T07:20:37;11.27;;;10.32;;
15952;SDS011;8075;47.766;8.846;2023-01-29T07:23:03;10.45;;;9.55;;
15952;SDS011;8075;47.766;8.846;2023-01-29T07:25:30;11.60;;;10.50;;
15952;SDS011;8075;47.766;8.846;2023-01-29T07:27:58;10.75;;;9.80;;
15952;SDS011;8075;47.766;8.846;2023-01-29T07:30:24;10.85;;;9.95;;
15952;SDS011;8075;47.766;8.846;2023-01-29T07:32:50;10.60;;;9.70;;
15952;SDS011;8075;47.766;8.846;2023-01-29T07:35:16;11.25;;;10.25;;
15952;SDS011;8075;47.766;8.846;2023-01-29T07:37:43;10.35;;;9.45;;
15952;SDS011;8075;47.766;8.846;2023-01-29T07:40:09;9.80;;;9.00;;
15952;SDS011;8075;47.766;8.846;2023-01-29T07:42:38;9.77;;;8.98;;
15952;SDS011;8075;47.766;8.846;2023-01-29T07:45:06;9.50;;;8.70;;
15952;SDS011;8075;47.766;8.846;2023-01-29T07:47:32;9.60;;;8.80;;
15952;SDS011;8075;47.766;8.846;2023-01-29T07:49:58;9.57;;;8.77;;
15952;SDS011;8075;47.766;8.846;2023-01-29T07:52:24;9.38;;;8.68;;
15952;SDS011;8075;47.766;8.846;2023-01-29T07:54:50;12.43;;;11.33;;
15952;SDS011;8075;47.766;8.846;2023-01-29T07:57:16;9.77;;;8.98;;
15952;SDS011;8075;47.766;8.846;2023-01-29T07:59:42;11.13;;;10.23;;
15952;SDS011;8075;47.766;8.846;2023-01-29T08:02:08;9.75;;;8.95;;
15952;SDS011;8075;47.766;8.846;2023-01-29T08:04:34;9.77;;;8.98;;
15952;SDS011;8075;47.766;8.846;2023-01-29T08:07:00;9.07;;;8.38;;
15952;SDS011;8075;47.766;8.846;2023-01-29T08:09:28;8.57;;;7.88;;
15952;SDS011;8075;47.766;8.846;2023-01-29T08:11:54;9.93;;;9.13;;
15952;SDS011;8075;47.766;8.846;2023-01-29T08:14:20;11.55;;;10.55;;
15952;SDS011;8075;47.766;8.846;2023-01-29T08:16:47;9.43;;;8.60;;
15952;SDS011;8075;47.766;8.846;2023-01-29T08:19:13;8.30;;;7.57;;
15952;SDS011;8075;47.766;8.846;2023-01-29T08:21:39;9.20;;;8.40;;
15952;SDS011;8075;47.766;8.846;2023-01-29T08:24:05;9.65;;;8.85;;
15952;SDS011;8075;47.766;8.846;2023-01-29T08:26:31;9.75;;;8.95;;
15952;SDS011;8075;47.766;8.846;2023-01-29T08:28:57;11.40;;;10.43;;
15952;SDS011;8075;47.766;8.846;2023-01-29T08:31:23;10.60;;;9.70;;
15952;SDS011;8075;47.766;8.846;2023-01-29T08:33:49;10.57;;;9.68;;
15952;SDS011;8075;47.766;8.846;2023-01-29T08:36:15;10.38;;;9.55;;
15952;SDS011;8075;47.766;8.846;2023-01-29T08:38:41;11.45;;;10.45;;
15952;SDS011;8075;47.766;8.846;2023-01-29T08:41:07;11.52;;;10.32;;
15952;SDS011;8075;47.766;8.846;2023-01-29T08:43:33;11.40;;;10.30;;
15952;SDS011;8075;47.766;8.846;2023-01-29T08:46:03;11.20;;;10.30;;
15952;SDS011;8075;47.766;8.846;2023-01-29T08:48:29;11.13;;;10.13;;
15952;SDS011;8075;47.766;8.846;2023-01-29T08:50:56;11.00;;;10.00;;
15952;SDS011;8075;47.766;8.846;2023-01-29T08:53:23;11.50;;;10.50;;
15952;SDS011;8075;47.766;8.846;2023-01-29T08:55:50;13.13;;;11.95;;
15952;SDS011;8075;47.766;8.846;2023-01-29T08:58:16;13.10;;;12.00;;
15952;SDS011;8075;47.766;8.846;2023-01-29T09:00:42;13.45;;;12.32;;
15952;SDS011;8075;47.766;8.846;2023-01-29T09:03:08;14.40;;;12.97;;
15952;SDS011;8075;47.766;8.846;2023-01-29T09:05:34;14.70;;;12.43;;
15952;SDS011;8075;47.766;8.846;2023-01-29T09:08:01;14.63;;;13.15;;
15952;SDS011;8075;47.766;8.846;2023-01-29T09:10:27;14.70;;;13.30;;
15952;SDS011;8075;47.766;8.846;2023-01-29T09:12:53;13.82;;;12.63;;
15952;SDS011;8075;47.766;8.846;2023-01-29T09:15:19;14.10;;;12.88;;
15952;SDS011;8075;47.766;8.846;2023-01-29T09:17:45;13.10;;;11.93;;
15952;SDS011;8075;47.766;8.846;2023-01-29T09:20:11;15.07;;;13.50;;
15952;SDS011;8075;47.766;8.846;2023-01-29T09:22:37;17.83;;;12.55;;
15952;SDS011;8075;47.766;8.846;2023-01-29T09:25:03;13.30;;;12.07;;
15952;SDS011;8075;47.766;8.846;2023-01-29T09:27:29;14.32;;;12.73;;
15952;SDS011;8075;47.766;8.846;2023-01-29T09:29:55;13.18;;;11.98;;
15952;SDS011;8075;47.766;8.846;2023-01-29T09:32:21;13.63;;;12.15;;
15952;SDS011;8075;47.766;8.846;2023-01-29T09:34:47;12.20;;;11.17;;
15952;SDS011;8075;47.766;8.846;2023-01-29T09:37:13;10.45;;;9.65;;
15952;SDS011;8075;47.766;8.846;2023-01-29T09:39:41;10.55;;;9.63;;
15952;SDS011;8075;47.766;8.846;2023-01-29T09:42:10;11.70;;;10.70;;
15952;SDS011;8075;47.766;8.846;2023-01-29T09:47:03;10.95;;;10.05;;
15952;SDS011;8075;47.766;8.846;2023-01-29T09:49:32;9.50;;;8.70;;
15952;SDS011;8075;47.766;8.846;2023-01-29T09:52:04;10.63;;;9.73;;
15952;SDS011;8075;47.766;8.846;2023-01-29T09:56:57;11.23;;;10.25;;
15952;SDS011;8075;47.766;8.846;2023-01-29T09:59:24;12.70;;;10.40;;
15952;SDS011;8075;47.766;8.846;2023-01-29T10:20:09;13.00;;;11.70;;
15952;SDS011;8075;47.766;8.846;2023-01-29T10:25:09;19.80;;;14.95;;
15952;SDS011;8075;47.766;8.846;2023-01-29T10:27:37;13.43;;;11.38;;
15952;SDS011;8075;47.766;8.846;2023-01-29T10:30:16;10.90;;;9.90;;
15952;SDS011;8075;47.766;8.846;2023-01-29T10:32:44;11.40;;;10.40;;
15952;SDS011;8075;47.766;8.846;2023-01-29T10:35:33;10.00;;;9.20;;
15952;SDS011;8075;47.766;8.846;2023-01-29T10:37:57;10.02;;;9.20;;
15952;SDS011;8075;47.766;8.846;2023-01-29T10:40:36;11.63;;;10.52;;
15952;SDS011;8075;47.766;8.846;2023-01-29T10:45:40;11.95;;;10.70;;
15952;SDS011;8075;47.766;8.846;2023-01-29T10:51:38;11.52;;;10.43;;
15952;SDS011;8075;47.766;8.846;2023-01-29T10:53:44;10.77;;;9.77;;
15952;SDS011;8075;47.766;8.846;2023-01-29T10:58:49;11.40;;;10.30;;
15952;SDS011;8075;47.766;8.846;2023-01-29T11:01:16;11.68;;;10.57;;
15952;SDS011;8075;47.766;8.846;2023-01-29T11:03:42;12.02;;;10.93;;
15952;SDS011;8075;47.766;8.846;2023-01-29T11:06:09;11.80;;;10.60;;
15952;SDS011;8075;47.766;8.846;2023-01-29T11:08:41;11.20;;;10.07;;
15952;SDS011;8075;47.766;8.846;2023-01-29T11:11:18;11.70;;;10.65;;
15952;SDS011;8075;47.766;8.846;2023-01-29T11:13:48;12.40;;;11.20;;
15952;SDS011;8075;47.766;8.846;2023-01-29T11:16:15;11.82;;;10.73;;
15952;SDS011;8075;47.766;8.846;2023-01-29T11:18:48;11.70;;;10.48;;
15952;SDS011;8075;47.766;8.846;2023-01-29T11:21:14;10.98;;;10.07;;
15952;SDS011;8075;47.766;8.846;2023-01-29T11:23:40;30.90;;;12.70;;
15952;SDS011;8075;47.766;8.846;2023-01-29T11:26:07;11.70;;;10.70;;
15952;SDS011;8075;47.766;8.846;2023-01-29T11:28:39;12.57;;;11.48;;
15952;SDS011;8075;47.766;8.846;2023-01-29T11:31:21;12.15;;;11.05;;
15952;SDS011;8075;47.766;8.846;2023-01-29T11:33:49;15.25;;;11.68;;
15952;SDS011;8075;47.766;8.846;2023-01-29T11:36:30;11.75;;;10.65;;
15952;SDS011;8075;47.766;8.846;2023-01-29T11:41:31;11.80;;;10.60;;
15952;SDS011;8075;47.766;8.846;2023-01-29T11:44:20;11.60;;;10.55;;
15952;SDS011;8075;47.766;8.846;2023-01-29T11:46:47;11.23;;;10.33;;
15952;SDS011;8075;47.766;8.846;2023-01-29T11:49:21;10.57;;;9.68;;
15952;SDS011;8075;47.766;8.846;2023-01-29T11:51:53;12.02;;;11.00;;
15952;SDS011;8075;47.766;8.846;2023-01-29T11:54:20;12.32;;;11.13;;
15952;SDS011;8075;47.766;8.846;2023-01-29T11:56:50;12.32;;;10.82;;
15952;SDS011;8075;47.766;8.846;2023-01-29T12:01:51;11.38;;;10.27;;
15952;SDS011;8075;47.766;8.846;2023-01-29T12:04:18;10.77;;;9.68;;
15952;SDS011;8075;47.766;8.846;2023-01-29T12:06:44;11.35;;;10.35;;
15952;SDS011;8075;47.766;8.846;2023-01-29T12:09:17;10.60;;;9.63;;
15952;SDS011;8075;47.766;8.846;2023-01-29T12:11:44;11.85;;;10.07;;
15952;SDS011;8075;47.766;8.846;2023-01-29T12:17:07;10.70;;;9.60;;
15952;SDS011;8075;47.766;8.846;2023-01-29T12:24:33;10.13;;;9.23;;
15952;SDS011;8075;47.766;8.846;2023-01-29T12:27:20;9.15;;;8.38;;
15952;SDS011;8075;47.766;8.846;2023-01-29T12:29:48;10.20;;;9.38;;
15952;SDS011;8075;47.766;8.846;2023-01-29T12:32:41;9.98;;;8.98;;
15952;SDS011;8075;47.766;8.846;2023-01-29T12:35:16;9.70;;;8.90;;
15952;SDS011;8075;47.766;8.846;2023-01-29T12:38:03;9.77;;;8.98;;
15952;SDS011;8075;47.766;8.846;2023-01-29T12:40:39;10.02;;;9.23;;
15952;SDS011;8075;47.766;8.846;2023-01-29T12:43:10;10.35;;;9.35;;
15952;SDS011;8075;47.766;8.846;2023-01-29T12:45:38;9.40;;;8.70;;
15952;SDS011;8075;47.766;8.846;2023-01-29T12:48:11;9.98;;;9.13;;
15952;SDS011;8075;47.766;8.846;2023-01-29T12:50:38;9.13;;;8.32;;
15952;SDS011;8075;47.766;8.846;2023-01-29T12:55:51;9.82;;;8.93;;
15952;SDS011;8075;47.766;8.846;2023-01-29T12:58:20;10.18;;;9.05;;
15952;SDS011;8075;47.766;8.846;2023-01-29T13:00:48;9.10;;;8.30;;
15952;SDS011;8075;47.766;8.846;2023-01-29T13:05:46;10.02;;;8.93;;
15952;SDS011;8075;47.766;8.846;2023-01-29T13:08:15;9.15;;;8.38;;
15952;SDS011;8075;47.766;8.846;2023-01-29T13:10:44;10.32;;;9.43;;
15952;SDS011;8075;47.766;8.846;2023-01-29T13:13:14;9.55;;;8.65;;
15952;SDS011;8075;47.766;8.846;2023-01-29T13:15:43;10.07;;;9.18;;
15952;SDS011;8075;47.766;8.846;2023-01-29T13:20:54;10.90;;;9.90;;
15952;SDS011;8075;47.766;8.846;2023-01-29T13:23:30;12.68;;;10.80;;
15952;SDS011;8075;47.766;8.846;2023-01-29T13:25:58;11.25;;;10.20;;
15952;SDS011;8075;47.766;8.846;2023-01-29T13:28:25;11.02;;;10.07;;
15952;SDS011;8075;47.766;8.846;2023-01-29T13:31:11;12.30;;;11.23;;
15952;SDS011;8075;47.766;8.846;2023-01-29T13:33:38;11.85;;;10.82;;
15952;SDS011;8075;47.766;8.846;2023-01-29T13:36:05;12.77;;;11.57;;
15952;SDS011;8075;47.766;8.846;2023-01-29T13:38:36;11.90;;;10.90;;
15952;SDS011;8075;47.766;8.846;2023-01-29T13:41:03;13.82;;;12.50;;
15952;SDS011;8075;47.766;8.846;2023-01-29T13:43:34;12.43;;;11.32;;
15952;SDS011;8075;47.766;8.846;2023-01-29T13:46:05;11.52;;;10.52;;
15952;SDS011;8075;47.766;8.846;2023-01-29T13:48:32;12.23;;;11.23;;
15952;SDS011;8075;47.766;8.846;2023-01-29T13:51:01;13.60;;;12.40;;
15952;SDS011;8075;47.766;8.846;2023-01-29T13:53:28;13.52;;;12.32;;
15952;SDS011;8075;47.766;8.846;2023-01-29T13:56:26;13.32;;;12.15;;
15952;SDS011;8075;47.766;8.846;2023-01-29T14:01:08;12.32;;;11.32;;
15952;SDS011;8075;47.766;8.846;2023-01-29T14:03:42;11.60;;;10.70;;
15952;SDS011;8075;47.766;8.846;2023-01-29T14:06:08;12.68;;;11.57;;
15952;SDS011;8075;47.766;8.846;2023-01-29T14:13:39;12.85;;;11.65;;
15952;SDS011;8075;47.766;8.846;2023-01-29T14:18:45;13.02;;;11.82;;
15952;SDS011;8075;47.766;8.846;2023-01-29T14:29:02;11.77;;;10.77;;
15952;SDS011;8075;47.766;8.846;2023-01-29T14:31:29;12.07;;;11.07;;
15952;SDS011;8075;47.766;8.846;2023-01-29T14:33:59;14.80;;;12.73;;
15952;SDS011;8075;47.766;8.846;2023-01-29T14:36:25;12.32;;;11.13;;
15952;SDS011;8075;47.766;8.846;2023-01-29T14:38:52;12.50;;;11.33;;
15952;SDS011;8075;47.766;8.846;2023-01-29T14:43:44;12.07;;;10.98;;
15952;SDS011;8075;47.766;8.846;2023-01-29T14:48:55;11.63;;;10.45;;
15952;SDS011;8075;47.766;8.846;2023-01-29T14:51:21;11.75;;;10.77;;
15952;SDS011;8075;47.766;8.846;2023-01-29T14:56:33;11.50;;;10.50;;
15952;SDS011;8075;47.766;8.846;2023-01-29T15:01:31;11.93;;;10.82;;
15952;SDS011;8075;47.766;8.846;2023-01-29T15:04:01;12.68;;;11.57;;
15952;SDS011;8075;47.766;8.846;2023-01-29T15:06:33;12.07;;;10.90;;
15952;SDS011;8075;47.766;8.846;2023-01-29T15:16:47;12.75;;;11.65;;
15952;SDS011;8075;47.766;8.846;2023-01-29T15:22:07;11.88;;;10.88;;
15952;SDS011;8075;47.766;8.846;2023-01-29T15:24:33;11.82;;;10.82;;
15952;SDS011;8075;47.766;8.846;2023-01-29T15:27:00;12.45;;;11.25;;
15952;SDS011;8075;47.766;8.846;2023-01-29T15:29:26;12.55;;;11.55;;
15952;SDS011;8075;47.766;8.846;2023-01-29T15:31:53;12.52;;;11.43;;
15952;SDS011;8075;47.766;8.846;2023-01-29T15:34:20;12.40;;;11.30;;
15952;SDS011;8075;47.766;8.846;2023-01-29T15:36:46;13.57;;;12.27;;
15952;SDS011;8075;47.766;8.846;2023-01-29T15:39:21;13.13;;;11.88;;
15952;SDS011;8075;47.766;8.846;2023-01-29T15:41:48;12.57;;;11.48;;
15952;SDS011;8075;47.766;8.846;2023-01-29T15:44:22;13.32;;;12.15;;
15952;SDS011;8075;47.766;8.846;2023-01-29T15:46:52;13.30;;;12.00;;
15952;SDS011;8075;47.766;8.846;2023-01-29T15:51:54;12.68;;;11.48;;
15952;SDS011;8075;47.766;8.846;2023-01-29T15:54:21;13.30;;;12.10;;
15952;SDS011;8075;47.766;8.846;2023-01-29T15:56:48;13.80;;;12.50;;
15952;SDS011;8075;47.766;8.846;2023-01-29T15:59:21;13.40;;;12.20;;
15952;SDS011;8075;47.766;8.846;2023-01-29T16:01:48;13.35;;;12.15;;
15952;SDS011;8075;47.766;8.846;2023-01-29T16:04:16;14.23;;;12.85;;
15952;SDS011;8075;47.766;8.846;2023-01-29T16:06:44;14.85;;;13.35;;
15952;SDS011;8075;47.766;8.846;2023-01-29T16:09:14;14.10;;;12.80;;
15952;SDS011;8075;47.766;8.846;2023-01-29T16:11:42;13.98;;;12.73;;
15952;SDS011;8075;47.766;8.846;2023-01-29T16:14:10;13.83;;;12.53;;
15952;SDS011;8075;47.766;8.846;2023-01-29T16:16:37;13.95;;;12.55;;
15952;SDS011;8075;47.766;8.846;2023-01-29T16:19:12;13.27;;;12.07;;
15952;SDS011;8075;47.766;8.846;2023-01-29T16:21:41;14.80;;;13.27;;
15952;SDS011;8075;47.766;8.846;2023-01-29T16:24:10;13.60;;;12.38;;
15952;SDS011;8075;47.766;8.846;2023-01-29T16:26:44;12.77;;;11.68;;
15952;SDS011;8075;47.766;8.846;2023-01-29T16:29:15;13.70;;;12.40;;
15952;SDS011;8075;47.766;8.846;2023-01-29T16:31:42;12.77;;;11.57;;
15952;SDS011;8075;47.766;8.846;2023-01-29T16:34:12;12.33;;;11.13;;
15952;SDS011;8075;47.766;8.846;2023-01-29T16:36:43;12.93;;;11.73;;
15952;SDS011;8075;47.766;8.846;2023-01-29T16:39:13;11.90;;;10.90;;
15952;SDS011;8075;47.766;8.846;2023-01-29T16:41:41;13.70;;;12.27;;
15952;SDS011;8075;47.766;8.846;2023-01-29T16:46:46;12.82;;;11.63;;
15952;SDS011;8075;47.766;8.846;2023-01-29T16:51:51;13.20;;;11.90;;
15952;SDS011;8075;47.766;8.846;2023-01-29T16:54:19;13.52;;;12.32;;
15952;SDS011;8075;47.766;8.846;2023-01-29T16:56:48;13.95;;;12.65;;
15952;SDS011;8075;47.766;8.846;2023-01-29T16:59:19;14.15;;;12.85;;
15952;SDS011;8075;47.766;8.846;2023-01-29T17:01:50;14.07;;;12.60;;
15952;SDS011;8075;47.766;8.846;2023-01-29T17:04:17;12.68;;;11.48;;
15952;SDS011;8075;47.766;8.846;2023-01-29T17:06:45;12.50;;;11.38;;
15952;SDS011;8075;47.766;8.846;2023-01-29T17:09:18;13.20;;;12.02;;
15952;SDS011;8075;47.766;8.846;2023-01-29T17:11:45;12.90;;;11.70;;
15952;SDS011;8075;47.766;8.846;2023-01-29T17:14:16;12.73;;;11.50;;
15952;SDS011;8075;47.766;8.846;2023-01-29T17:17:00;11.67;;;10.30;;
15952;SDS011;8075;47.766;8.846;2023-01-29T17:19:26;11.90;;;10.75;;
15952;SDS011;8075;47.766;8.846;2023-01-29T17:21:54;12.32;;;11.13;;
15952;SDS011;8075;47.766;8.846;2023-01-29T17:24:20;12.50;;;11.38;;
15952;SDS011;8075;47.766;8.846;2023-01-29T17:26:47;13.55;;;12.25;;
15952;SDS011;8075;47.766;8.846;2023-01-29T17:29:13;15.30;;;13.80;;
15952;SDS011;8075;47.766;8.846;2023-01-29T17:31:40;14.95;;;13.48;;
15952;SDS011;8075;47.766;8.846;2023-01-29T17:34:10;14.15;;;12.85;;
15952;SDS011;8075;47.766;8.846;2023-01-29T17:36:38;14.68;;;13.23;;